Time;durP1;ratioP1;P1;durP2;ratioP2;P2;SDS_P1;SDS_P2;PMS_P1;PMS_P2;Temp;Humidity;BMP_temperature;BMP_pressure;BME280_temperature;BME280_humidity;BME280_pressure;Samples;Min_cycle;Max_cycle;Signal;HPM_P1;HPM_P2
2023/02/16 00:01:16;;;;;;;73.15;42.85;;;;;;;-2.95;100.00;94313.09;5068916;28;20044;-69
2023/02/16 00:03:43;;;;;;;88.13;51.17;;;;;;;-2.95;100.00;94309.78;5055901;28;20045;-69
2023/02/16 00:06:13;;;;;;;94.40;56.58;;;;;;;-2.99;100.00;94309.19;5069400;28;20048;-69
2023/02/16 00:08:40;;;;;;;90.93;52.88;;;;;;;-2.97;100.00;94301.50;5068602;28;20094;-69
2023/02/16 00:13:59;;;;;;;89.75;54.92;;;;;;;-2.91;100.00;94310.38;5043117;28;20055;-70
2023/02/16 00:16:27;;;;;;;76.15;47.40;;;;;;;-2.95;100.00;94299.72;5068151;28;20048;-70
2023/02/16 00:18:54;;;;;;;71.90;42.53;;;;;;;-2.95;100.00;94298.00;5068615;28;20093;-69
2023/02/16 00:21:21;;;;;;;62.10;39.20;;;;;;;-2.95;100.00;94300.50;5069350;28;20133;-69
2023/02/16 00:23:48;;;;;;;56.90;36.70;;;;;;;-3.03;100.00;94296.88;5069161;28;20489;-69
2023/02/16 00:26:17;;;;;;;54.35;34.53;;;;;;;-3.01;100.00;94303.44;5068830;28;20045;-70
2023/02/16 00:28:44;;;;;;;53.25;35.33;;;;;;;-3.04;100.00;94310.38;5068433;28;20068;-70
2023/02/16 00:31:17;;;;;;;46.15;28.92;;;;;;;-3.09;100.00;94310.69;5069035;28;20530;-70
2023/02/16 00:33:45;;;;;;;47.55;29.02;;;;;;;-3.17;100.00;94303.63;5069053;28;20047;-69
2023/02/16 00:36:12;;;;;;;44.25;29.80;;;;;;;-3.16;100.00;94306.97;5069078;28;20044;-69
2023/02/16 00:38:38;;;;;;;44.85;28.38;;;;;;;-3.19;100.00;94307.13;5068661;28;20094;-70
2023/02/16 00:41:49;;;;;;;44.50;28.98;;;;;;;-3.21;100.00;94312.25;5069007;28;20113;-69
2023/02/16 00:43:53;;;;;;;47.92;29.70;;;;;;;-3.30;100.00;94306.13;5068524;28;20483;-69
2023/02/16 00:46:21;;;;;;;60.00;36.97;;;;;;;-3.40;100.00;94312.63;5060190;28;20056;-69
2023/02/16 00:48:49;;;;;;;75.47;45.80;;;;;;;-3.48;100.00;94303.03;5063823;28;20045;-69
2023/02/16 00:51:16;;;;;;;101.22;60.20;;;;;;;-3.52;100.00;94302.44;5068194;28;20076;-69
2023/02/16 00:53:42;;;;;;;89.80;53.28;;;;;;;-3.51;100.00;94306.56;5068043;28;20098;-69
2023/02/16 00:56:20;;;;;;;86.70;51.58;;;;;;;-3.46;100.00;94295.41;5068674;28;20049;-69
2023/02/16 00:58:49;;;;;;;82.85;49.33;;;;;;;-3.42;100.00;94300.16;5068473;28;20047;-69
2023/02/16 01:01:18;;;;;;;80.68;47.70;;;;;;;-3.47;100.00;94288.78;5071410;28;20157;-69
2023/02/16 01:03:45;;;;;;;81.05;48.70;;;;;;;-3.40;100.00;94303.38;5072456;28;20099;-70
2023/02/16 01:11:47;;;;;;;60.10;37.08;;;;;;;-3.51;100.00;94291.47;5052203;28;20288;-69
2023/02/16 01:14:13;;;;;;;61.05;38.05;;;;;;;-3.54;100.00;94299.22;5052018;28;20091;-69
2023/02/16 01:16:42;;;;;;;58.78;36.67;;;;;;;-3.55;100.00;94294.28;5052035;28;20049;-69
2023/02/16 01:19:13;;;;;;;57.42;35.92;;;;;;;-3.52;100.00;94297.41;5052173;28;20098;-69
2023/02/16 01:21:41;;;;;;;50.33;31.33;;;;;;;-3.53;100.00;94298.31;5051876;28;20114;-69
2023/02/16 01:24:08;;;;;;;45.33;28.60;;;;;;;-3.54;100.00;94293.38;5052284;28;20037;-69
2023/02/16 01:26:39;;;;;;;44.17;29.02;;;;;;;-3.60;100.00;94296.28;5052187;28;21060;-69
2023/02/16 01:29:06;;;;;;;42.45;27.30;;;;;;;-3.67;100.00;94290.84;5058743;28;20530;-69
2023/02/16 01:31:33;;;;;;;48.60;31.50;;;;;;;-3.71;100.00;94284.41;5071968;28;20438;-69
2023/02/16 01:34:00;;;;;;;49.15;31.80;;;;;;;-3.71;100.00;94276.88;5072005;28;20098;-68
2023/02/16 01:36:31;;;;;;;47.13;30.80;;;;;;;-3.73;100.00;94282.00;5071796;28;20086;-68
2023/02/16 01:38:59;;;;;;;54.08;32.83;;;;;;;-3.75;100.00;94273.75;5071698;28;20048;-68
2023/02/16 01:41:44;;;;;;;58.28;34.50;;;;;;;-3.73;100.00;94266.94;5049285;28;20114;-69
2023/02/16 01:44:14;;;;;;;56.97;37.05;;;;;;;-3.80;100.00;94258.19;5051997;28;20041;-69
2023/02/16 01:46:46;;;;;;;49.47;32.85;;;;;;;-3.77;100.00;94265.50;5051861;28;20052;-69
2023/02/16 01:52:06;;;;;;;54.38;32.90;;;;;;;-3.85;100.00;94270.22;5051520;28;20055;-69
2023/02/16 01:54:41;;;;;;;44.70;29.40;;;;;;;-3.85;100.00;94265.19;5051612;28;20041;-68
2023/02/16 01:57:21;;;;;;;43.17;27.10;;;;;;;-3.91;100.00;94268.88;5051542;28;20562;-69
2023/02/16 02:00:10;;;;;;;40.75;25.38;;;;;;;-3.92;100.00;94269.78;5051228;28;20045;-68
2023/02/16 02:02:40;;;;;;;38.92;24.90;;;;;;;-3.95;100.00;94257.41;5051105;28;20041;-69
2023/02/16 02:08:06;;;;;;;45.40;25.92;;;;;;;-4.03;100.00;94263.72;5051210;28;20129;-69
2023/02/16 02:10:44;;;;;;;42.20;25.38;;;;;;;-4.12;100.00;94264.25;5051069;28;20095;-69
2023/02/16 02:13:17;;;;;;;40.40;23.85;;;;;;;-4.10;100.00;94267.50;5051237;28;20049;-69
2023/02/16 02:15:44;;;;;;;38.22;23.52;;;;;;;-4.10;100.00;94254.97;5051199;28;20044;-69
2023/02/16 02:18:10;;;;;;;35.70;22.85;;;;;;;-4.11;100.00;94255.03;5051265;28;20045;-69
2023/02/16 02:24:03;;;;;;;71.72;45.67;;;;;;;-4.24;100.00;94253.28;5050880;28;20063;-69
2023/02/16 02:26:54;;;;;;;62.20;38.45;;;;;;;-4.25;100.00;94251.69;5051093;28;20041;-69
2023/02/16 02:29:40;;;;;;;65.10;40.20;;;;;;;-4.24;100.00;94252.47;5059587;28;21224;-69
2023/02/16 02:32:17;;;;;;;58.35;38.25;;;;;;;-4.22;100.00;94246.47;5070976;28;20047;-69
2023/02/16 02:34:56;;;;;;;45.35;28.55;;;;;;;-4.24;100.00;94245.75;5070776;28;20057;-70
2023/02/16 02:37:34;;;;;;;39.63;24.95;;;;;;;-4.26;100.00;94252.56;5070380;28;20037;-69
2023/02/16 02:40:11;;;;;;;40.15;26.08;;;;;;;-4.26;100.00;94254.28;5070417;28;20098;-70
2023/02/16 02:42:48;;;;;;;35.70;24.20;;;;;;;-4.30;100.00;94251.94;5070608;28;20451;-69
2023/02/16 02:45:18;;;;;;;42.22;24.95;;;;;;;-4.33;100.00;94253.84;5070322;28;20044;-69
2023/02/16 02:47:47;;;;;;;40.50;25.17;;;;;;;-4.39;100.00;94250.00;5070320;28;20050;-69
2023/02/16 02:50:39;;;;;;;39.00;25.02;;;;;;;-4.43;100.00;94244.34;5070211;28;20550;-69
2023/02/16 02:53:11;;;;;;;41.63;27.52;;;;;;;-4.52;100.00;94254.94;5070420;28;20044;-69
2023/02/16 03:01:35;;;;;;;49.90;31.35;;;;;;;-4.62;100.00;94256.41;5027700;28;20053;-69
2023/02/16 03:04:04;;;;;;;49.75;31.67;;;;;;;-4.56;100.00;94253.53;5027744;28;20453;-68
2023/02/16 03:06:35;;;;;;;52.13;32.67;;;;;;;-4.54;100.00;94248.41;5047439;28;20036;-69
2023/02/16 03:09:10;;;;;;;53.08;34.05;;;;;;;-4.56;100.00;94251.00;5070102;28;20394;-69
2023/02/16 03:14:27;;;;;;;53.05;35.22;;;;;;;-4.51;100.00;94255.75;5069894;28;20056;-69
2023/02/16 03:30:47;;;;;;;58.00;36.55;;;;;;;-4.62;100.00;94251.38;5069497;28;20055;-70
2023/02/16 03:33:14;;;;;;;56.03;35.20;;;;;;;-4.61;100.00;94247.97;5069600;28;20074;-70
2023/02/16 03:35:42;;;;;;;56.83;36.33;;;;;;;-4.61;100.00;94255.50;5069672;28;20096;-69
2023/02/16 03:38:09;;;;;;;67.28;38.88;;;;;;;-4.62;100.00;94251.38;5069455;28;20106;-69
2023/02/16 03:40:39;;;;;;;65.68;39.92;;;;;;;-4.64;100.00;94248.97;5069243;28;20501;-69
2023/02/16 03:43:08;;;;;;;66.40;40.45;;;;;;;-4.63;100.00;94244.75;5069715;28;20040;-69
2023/02/16 03:45:37;;;;;;;51.42;32.83;;;;;;;-4.61;100.00;94253.00;5069385;28;20106;-69
2023/02/16 03:48:05;;;;;;;52.20;30.98;;;;;;;-4.66;100.00;94243.25;5069536;28;20044;-69
2023/02/16 03:50:32;;;;;;;52.50;31.52;;;;;;;-4.65;100.00;94244.03;5069287;28;20041;-69
2023/02/16 03:53:06;;;;;;;49.38;31.33;;;;;;;-4.65;100.00;94244.03;5069159;28;20041;-69
2023/02/16 03:55:33;;;;;;;45.97;29.83;;;;;;;-4.65;100.00;94246.53;5069473;28;20077;-69
2023/02/16 03:58:00;;;;;;;48.55;30.48;;;;;;;-4.71;100.00;94242.72;5069374;28;20177;-69
2023/02/16 04:00:27;;;;;;;43.13;27.83;;;;;;;-4.71;100.00;94242.72;5069006;28;20493;-69
2023/02/16 04:02:54;;;;;;;43.17;27.55;;;;;;;-4.76;100.00;94240.47;5068719;28;20574;-69
2023/02/16 04:05:22;;;;;;;48.63;28.90;;;;;;;-4.73;100.00;94239.47;5069154;28;20110;-69
2023/02/16 04:07:49;;;;;;;40.05;24.58;;;;;;;-4.77;100.00;94238.06;5069238;28;20090;-69
2023/02/16 04:10:16;;;;;;;42.17;25.63;;;;;;;-4.86;100.00;94230.16;5068770;28;20110;-69
2023/02/16 04:12:41;;;;;;;40.80;25.20;;;;;;;-4.85;100.00;94228.47;5069085;28;20080;-69
2023/02/16 04:15:09;;;;;;;;;;;;;;;-4.84;100.00;94217.56;5069208;28;20843;-69
2023/02/16 04:17:36;;;;;;;40.17;24.98;;;;;;;-4.90;100.00;94228.75;5068942;28;19966;-69
2023/02/16 04:20:03;;;;;;;45.08;26.85;;;;;;;-4.90;100.00;94213.72;5068713;28;20044;-69
2023/02/16 04:22:31;;;;;;;39.38;24.52;;;;;;;-4.96;100.00;94214.06;5068953;28;20048;-69
2023/02/16 04:24:58;;;;;;;42.03;25.38;;;;;;;-5.01;100.00;94219.34;5068587;28;20044;-69
2023/02/16 04:27:25;;;;;;;40.50;25.15;;;;;;;-4.99;100.00;94215.03;5068927;28;21026;-69
2023/02/16 04:29:51;;;;;;;42.03;24.88;;;;;;;-5.01;100.00;94221.03;5068627;28;20048;-69
2023/02/16 04:32:18;;;;;;;43.30;25.42;;;;;;;-5.07;100.00;94222.22;5068600;28;20041;-70
2023/02/16 04:34:45;;;;;;;42.10;26.00;;;;;;;-5.02;100.00;94211.91;5068534;28;20070;-69
2023/02/16 04:37:12;;;;;;;46.65;27.85;;;;;;;-5.01;100.00;94216.84;5064597;28;20082;-69
2023/02/16 04:39:40;;;;;;;42.85;25.90;;;;;;;-4.94;100.00;94217.28;5066305;28;20048;-69
2023/02/16 04:42:07;;;;;;;52.92;31.27;;;;;;;-5.03;100.00;94222.84;5045154;28;20045;-69
2023/02/16 04:44:33;;;;;;;45.83;28.88;;;;;;;-5.05;100.00;94227.94;5048204;28;20049;-69
2023/02/16 04:47:00;;;;;;;50.92;31.27;;;;;;;-5.07;100.00;94228.91;5048597;28;20464;-69
2023/02/16 04:49:27;;;;;;;75.78;41.42;;;;;;;-5.10;100.00;94230.72;5048600;28;20091;-69
2023/02/16 04:51:53;;;;;;;83.40;42.78;;;;;;;-5.10;100.00;94225.69;5048174;28;20099;-69
2023/02/16 04:54:20;;;;;;;67.20;36.75;;;;;;;-5.11;100.00;94233.31;5048366;28;20045;-69
2023/02/16 04:56:48;;;;;;;70.55;40.53;;;;;;;-5.17;100.00;94229.47;5048568;28;20091;-69
2023/02/16 04:59:16;;;;;;;75.90;41.22;;;;;;;-5.26;100.00;94208.25;5048147;28;20041;-69
2023/02/16 05:01:43;;;;;;;76.32;45.55;;;;;;;-5.46;100.00;94186.84;5048009;28;20092;-69
2023/02/16 05:04:10;;;;;;;76.80;46.33;;;;;;;-5.13;100.00;94240.91;5048070;28;20512;-69
2023/02/16 05:06:37;;;;;;;78.03;44.97;;;;;;;-5.11;100.00;94246.66;5047880;28;20041;-69
2023/02/16 05:09:04;;;;;;;85.47;50.83;;;;;;;-5.11;100.00;94244.13;5048378;28;20037;-69
2023/02/16 05:17:05;;;;;;;84.65;49.33;;;;;;;-5.15;100.00;94249.41;5048057;28;20090;-69
2023/02/16 05:19:31;;;;;;;96.25;51.75;;;;;;;-5.24;100.00;94240.72;5048117;28;20041;-69
2023/02/16 05:21:59;;;;;;;106.70;58.10;;;;;;;-5.18;100.00;94252.91;5048146;28;20080;-69
2023/02/16 05:24:26;;;;;;;105.25;61.45;;;;;;;-5.18;100.00;94252.91;5055040;28;20040;-69
2023/02/16 05:26:53;;;;;;;105.75;60.65;;;;;;;-5.25;100.00;94246.63;5068565;28;20048;-69
2023/02/16 05:29:21;;;;;;;128.95;70.85;;;;;;;-5.22;100.00;94258.97;5045513;28;20044;-69
2023/02/16 05:31:48;;;;;;;134.27;74.15;;;;;;;-5.21;100.00;94258.09;5068287;28;20048;-69
2023/02/16 05:34:15;;;;;;;142.27;73.63;;;;;;;-5.22;100.00;94256.47;5067914;28;20045;-69
2023/02/16 05:36:41;;;;;;;139.45;76.00;;;;;;;-5.27;100.00;94261.72;5068491;28;20113;-69
2023/02/16 05:39:08;;;;;;;140.63;75.10;;;;;;;-5.24;100.00;94265.75;5068512;28;20553;-69
2023/02/16 05:41:35;;;;;;;131.13;70.60;;;;;;;-5.22;100.00;94266.50;5068048;28;20056;-69
2023/02/16 05:44:03;;;;;;;136.88;74.80;;;;;;;-5.16;100.00;94268.66;5068444;28;20101;-69
2023/02/16 05:46:34;;;;;;;107.97;58.53;;;;;;;-5.13;100.00;94262.66;5070021;28;20121;-69
2023/02/16 05:49:01;;;;;;;88.25;49.63;;;;;;;-5.14;100.00;94261.84;5072133;28;20041;-69
2023/02/16 05:51:29;;;;;;;88.53;46.85;;;;;;;-5.11;100.00;94273.38;5071474;28;20045;-69
2023/02/16 05:53:56;;;;;;;68.03;36.38;;;;;;;-5.15;100.00;94272.75;5071662;28;20098;-69
2023/02/16 05:56:23;;;;;;;65.32;35.33;;;;;;;-5.13;100.00;94278.47;5071605;28;20048;-69
2023/02/16 05:58:49;;;;;;;63.17;35.15;;;;;;;-5.08;100.00;94282.44;5071985;28;20102;-69
2023/02/16 06:01:17;;;;;;;66.38;38.00;;;;;;;-5.06;100.00;94291.47;5071518;28;20093;-69
2023/02/16 06:03:45;;;;;;;86.22;50.97;;;;;;;-5.14;100.00;94276.09;5066964;28;20117;-69
2023/02/16 06:06:12;;;;;;;86.53;49.20;;;;;;;-5.01;100.00;94284.50;5069630;28;20094;-69
2023/02/16 06:08:39;;;;;;;89.22;51.10;;;;;;;-4.91;100.00;94286.47;5071246;28;20509;-69
2023/02/16 06:11:34;;;;;;;84.93;48.13;;;;;;;-4.80;100.00;94288.34;5071190;28;20044;-69
2023/02/16 06:13:56;;;;;;;90.90;48.90;;;;;;;-4.70;100.00;94280.22;5070437;28;20055;-69
2023/02/16 06:16:24;;;;;;;72.45;43.22;;;;;;;-4.61;100.00;94283.88;5071006;28;20515;-69
2023/02/16 06:18:53;;;;;;;83.20;47.38;;;;;;;-4.54;100.00;94289.31;5070647;28;20057;-70
2023/02/16 06:21:19;;;;;;;85.90;49.78;;;;;;;-4.44;100.00;94302.16;5071500;28;20049;-69
2023/02/16 06:23:46;;;;;;;90.45;51.35;;;;;;;-4.36;100.00;94301.69;5070913;28;20510;-69
2023/02/16 06:26:13;;;;;;;95.20;56.47;;;;;;;-4.27;100.00;94301.13;5071087;28;20477;-69
2023/02/16 06:28:39;;;;;;;100.22;59.38;;;;;;;-4.24;100.00;94298.44;5070590;28;20098;-69
2023/02/16 06:31:06;;;;;;;107.43;64.20;;;;;;;-4.19;100.00;94300.69;5070916;28;20500;-69
2023/02/16 06:33:33;;;;;;;100.25;61.60;;;;;;;-4.08;100.00;94305.06;5071048;28;20110;-69
2023/02/16 06:36:01;;;;;;;92.20;58.63;;;;;;;-3.97;100.00;94299.38;5071299;28;20049;-69
2023/02/16 06:38:28;;;;;;;99.35;58.63;;;;;;;-3.89;100.00;94308.03;5070848;28;20049;-69
2023/02/16 06:40:55;;;;;;;98.40;59.15;;;;;;;-3.78;100.00;94314.13;5071042;28;20357;-69
2023/02/16 06:43:22;;;;;;;110.07;68.75;;;;;;;-3.78;100.00;94289.81;5070718;28;20090;-69
2023/02/16 06:45:49;;;;;;;119.25;71.00;;;;;;;-3.62;100.00;94302.22;5071183;28;20459;-70
2023/02/16 06:48:15;;;;;;;123.03;74.90;;;;;;;-3.56;100.00;94301.00;5070552;28;20041;-69
2023/02/16 06:50:42;;;;;;;125.85;72.78;;;;;;;-3.44;100.00;94296.13;5071150;28;20113;-69
2023/02/16 06:53:10;;;;;;;111.22;65.47;;;;;;;-3.32;100.00;94297.88;5070513;28;20048;-69
2023/02/16 06:55:37;;;;;;;100.60;60.90;;;;;;;-3.20;100.00;94298.00;5070534;28;20106;-69
2023/02/16 06:58:04;;;;;;;105.05;63.13;;;;;;;-3.08;100.00;94299.72;5070686;28;20090;-69
2023/02/16 07:00:32;;;;;;;101.43;61.88;;;;;;;-2.98;100.00;94298.22;5070416;28;20102;-70
2023/02/16 07:02:58;;;;;;;100.88;64.07;;;;;;;-2.83;100.00;94293.88;5070329;28;20565;-70
2023/02/16 07:05:25;;;;;;;106.35;66.38;;;;;;;-2.73;100.00;94290.78;5070869;28;20048;-70
2023/02/16 07:07:52;;;;;;;100.53;57.60;;;;;;;-2.58;100.00;94284.72;5070475;28;20048;-69
2023/02/16 07:10:20;;;;;;;100.72;56.72;;;;;;;-2.45;100.00;94286.44;5070380;28;20241;-69
2023/02/16 07:12:48;;;;;;;90.72;55.92;;;;;;;-2.30;100.00;94282.84;5070078;28;20048;-69
2023/02/16 07:15:15;;;;;;;110.40;65.97;;;;;;;-2.12;100.00;94274.97;5069926;28;20040;-69
2023/02/16 07:17:42;;;;;;;125.90;75.95;;;;;;;-1.92;100.00;94278.63;5070100;28;20071;-69
2023/02/16 07:20:11;;;;;;;119.93;71.82;;;;;;;-1.79;100.00;94270.22;5070236;28;20516;-69
2023/02/16 07:22:38;;;;;;;119.53;69.25;;;;;;;-1.67;100.00;94276.13;5044637;28;20052;-69
2023/02/16 07:25:05;;;;;;;116.93;66.05;;;;;;;-1.55;100.00;94272.72;5069790;28;20045;-69
2023/02/16 07:27:34;;;;;;;151.57;86.90;;;;;;;-1.42;100.00;94272.66;5070315;28;20458;-69
2023/02/16 07:30:00;;;;;;;134.43;79.53;;;;;;;-1.24;100.00;94264.69;5069776;28;20045;-69
2023/02/16 07:32:29;;;;;;;135.70;80.10;;;;;;;-1.21;100.00;94261.91;5070219;28;20044;-69
2023/02/16 07:34:56;;;;;;;128.50;74.78;;;;;;;-1.18;100.00;94261.72;5069482;28;20090;-69
2023/02/16 07:37:22;;;;;;;139.93;80.57;;;;;;;-1.34;100.00;94262.03;5069874;28;20040;-69
2023/02/16 07:39:49;;;;;;;156.50;95.88;;;;;;;-1.25;100.00;94260.56;5069787;28;20044;-69
2023/02/16 07:42:16;;;;;;;192.35;109.15;;;;;;;-1.35;100.00;94266.25;5066917;28;20061;-69
2023/02/16 07:44:44;;;;;;;180.65;95.68;;;;;;;-1.35;100.00;94265.44;5067878;28;20052;-69
2023/02/16 07:47:12;;;;;;;181.82;95.65;;;;;;;-1.19;100.00;94260.09;5068295;28;20455;-69
2023/02/16 07:49:39;;;;;;;158.25;82.15;;;;;;;-1.06;100.00;94260.03;5069828;28;20040;-69
2023/02/16 07:52:05;;;;;;;142.18;77.03;;;;;;;-1.19;100.00;94260.09;5069579;28;20394;-69
2023/02/16 07:54:33;;;;;;;136.63;74.53;;;;;;;-1.27;100.00;94270.75;5069584;28;20040;-69
2023/02/16 07:57:00;;;;;;;140.68;81.38;;;;;;;-1.27;100.00;94268.22;5068926;28;20044;-69
2023/02/16 07:59:26;;;;;;;148.82;81.55;;;;;;;-1.17;100.00;94265.06;5069098;28;20546;-69
2023/02/16 08:01:54;;;;;;;147.85;81.15;;;;;;;-1.01;100.00;94259.69;5069093;28;20044;-69
2023/02/16 08:04:21;;;;;;;145.48;81.28;;;;;;;-0.95;100.00;94267.59;5069480;28;20048;-69
2023/02/16 08:06:48;;;;;;;132.43;77.88;;;;;;;-1.02;100.00;94255.56;5068939;28;20052;-69
2023/02/16 08:09:14;;;;;;;124.70;67.55;;;;;;;-0.93;100.00;94272.50;5068468;28;20058;-69
2023/02/16 08:11:41;;;;;;;148.10;79.97;;;;;;;-0.97;100.00;94263.59;5068529;28;20053;-69
2023/02/16 08:14:08;;;;;;;153.13;81.70;;;;;;;-0.73;100.00;94263.50;5069167;28;20048;-69
2023/02/16 08:16:35;;;;;;;131.07;71.65;;;;;;;-0.49;100.00;94260.06;5069103;28;20441;-69
2023/02/16 08:19:03;;;;;;;133.65;71.60;;;;;;;-0.52;100.00;94274.63;5069143;28;20049;-69
2023/02/16 08:21:32;;;;;;;121.28;67.88;;;;;;;-0.38;100.00;94279.44;5068733;28;20509;-69
2023/02/16 08:24:01;;;;;;;112.32;61.05;;;;;;;-0.37;100.00;94275.19;5068620;28;20516;-69
2023/02/16 08:26:33;;;;;;;102.15;56.67;;;;;;;-0.28;100.00;94275.28;5068462;28;20048;-69
2023/02/16 08:29:00;;;;;;;90.93;51.65;;;;;;;-0.23;100.00;94266.56;5066544;28;20098;-69
2023/02/16 08:31:29;;;;;;;91.45;51.85;;;;;;;-0.07;100.00;94271.25;5060030;28;20048;-69
2023/02/16 08:33:58;;;;;;;106.03;56.50;;;;;;;-0.04;100.00;94266.75;5052975;28;20067;-69
2023/02/16 08:36:31;;;;;;;100.30;55.22;;;;;;;0.12;100.00;94270.63;5061879;28;20044;-69
2023/02/16 08:38:58;;;;;;;100.40;52.08;;;;;;;0.26;100.00;94256.91;5061409;28;20489;-69
2023/02/16 08:41:30;;;;;;;96.47;53.15;;;;;;;0.48;100.00;94263.63;5063314;28;20056;-69
2023/02/16 08:43:56;;;;;;;95.95;49.70;;;;;;;0.49;100.00;94270.28;5068621;28;20459;-69
2023/02/16 08:46:23;;;;;;;80.85;44.85;;;;;;;0.61;100.00;94267.69;5068619;28;20048;-69
2023/02/16 08:48:50;;;;;;;84.97;46.78;;;;;;;0.66;100.00;94271.47;5069086;28;20102;-69
2023/02/16 08:51:18;;;;;;;87.28;45.83;;;;;;;0.75;100.00;94276.72;5068722;28;20045;-69
2023/02/16 08:53:46;;;;;;;87.78;46.95;;;;;;;0.99;100.00;94266.34;5068773;28;20049;-69
2023/02/16 08:56:15;;;;;;;98.10;49.72;;;;;;;1.16;100.00;94269.25;5068683;28;20106;-69
2023/02/16 08:58:42;;;;;;;92.90;52.10;;;;;;;1.30;100.00;94258.78;5069001;28;20060;-70
2023/02/16 09:01:10;;;;;;;94.15;48.72;;;;;;;1.59;100.00;94268.22;5059674;28;20183;-70
2023/02/16 09:03:40;;;;;;;89.97;47.60;;;;;;;1.78;100.00;94271.75;5048058;28;20052;-70
2023/02/16 09:06:06;;;;;;;73.93;43.50;;;;;;;2.00;100.00;94272.47;5048555;28;20045;-70
2023/02/16 09:08:36;;;;;;;78.93;45.70;;;;;;;2.16;100.00;94281.31;5048376;28;20099;-70
2023/02/16 09:11:06;;;;;;;78.00;43.33;;;;;;;2.40;100.00;94274.13;5048486;28;20045;-71
2023/02/16 09:13:34;;;;;;;79.55;44.88;;;;;;;2.60;100.00;94268.25;5054346;28;20111;-71
2023/02/16 09:16:03;;;;;;;70.07;38.95;;;;;;;2.74;100.00;94270.38;5054571;28;20080;-70
2023/02/16 09:18:31;;;;;;;72.53;38.20;;;;;;;2.79;100.00;94262.38;5052759;28;20044;-71
2023/02/16 09:20:59;;;;;;;74.93;37.75;;;;;;;2.91;100.00;94268.91;5053546;28;20051;-71
2023/02/16 09:23:26;;;;;;;73.80;38.30;;;;;;;3.09;100.00;94267.41;5064309;28;20447;-71
2023/02/16 09:25:53;;;;;;;63.17;36.15;;;;;;;3.00;100.00;94274.09;5069570;28;20526;-71
2023/02/16 09:28:21;;;;;;;67.07;36.85;;;;;;;2.77;100.00;94267.56;5072405;28;20102;-71
2023/02/16 09:30:47;;;;;;;62.70;35.17;;;;;;;2.77;100.00;94266.75;5072204;28;20509;-71
2023/02/16 09:33:14;;;;;;;72.25;38.50;;;;;;;2.92;100.00;94260.34;5072273;28;20045;-72
2023/02/16 09:35:41;;;;;;;69.93;36.92;;;;;;;2.94;100.00;94257.69;5058174;28;20102;-71
2023/02/16 09:38:09;;;;;;;67.45;38.30;;;;;;;2.99;100.00;94244.56;5071859;28;20053;-71
2023/02/16 09:40:37;;;;;;;70.30;37.03;;;;;;;3.17;100.00;94255.63;5071822;28;20055;-71
2023/02/16 09:43:08;;;;;;;67.95;36.50;;;;;;;3.24;100.00;94250.78;5072233;28;20079;-71
2023/02/16 09:45:42;;;;;;;71.07;34.90;;;;;;;3.35;100.00;94242.22;5071794;28;20106;-71
2023/02/16 09:48:21;;;;;;;59.08;31.23;;;;;;;3.53;100.00;94249.09;5071777;28;20049;-71
2023/02/16 09:50:53;;;;;;;60.38;32.03;;;;;;;3.66;100.00;94252.09;5067505;28;20052;-71
2023/02/16 09:53:24;;;;;;;59.75;31.52;;;;;;;3.83;100.00;94250.56;5063873;28;20527;-71
2023/02/16 09:56:01;;;;;;;55.78;31.05;;;;;;;3.88;100.00;94234.88;5071120;28;20098;-71
2023/02/16 09:58:37;;;;;;;56.30;29.77;;;;;;;3.96;100.00;94236.69;5071371;28;20135;-71
2023/02/16 10:01:17;;;;;;;61.13;31.83;;;;;;;4.17;100.00;94236.41;5071785;28;20127;-71
2023/02/16 10:03:53;;;;;;;60.88;30.88;;;;;;;4.28;100.00;94227.78;5071358;28;20500;-71
2023/02/16 10:06:41;;;;;;;58.78;30.55;;;;;;;4.52;100.00;94237.38;5071619;28;20052;-71
2023/02/16 10:09:15;;;;;;;61.60;31.88;;;;;;;4.81;100.00;94233.78;5048695;28;20127;-70
2023/02/16 10:11:47;;;;;;;64.15;32.20;;;;;;;5.19;100.00;94227.66;5059481;28;20493;-71
2023/02/16 10:14:24;;;;;;;54.28;28.20;;;;;;;5.34;100.00;94217.69;5069556;28;20045;-71
2023/02/16 10:17:00;;;;;;;63.92;28.02;;;;;;;5.49;100.00;94235.75;5058018;28;20052;-70
2023/02/16 10:19:34;;;;;;;63.40;27.35;;;;;;;5.51;98.71;94231.28;5060674;28;20048;-71
2023/02/16 10:22:08;;;;;;;58.00;25.92;;;;;;;5.65;100.00;94219.72;5070942;28;20087;-70
2023/02/16 10:24:42;;;;;;;61.88;27.17;;;;;;;5.86;100.00;94224.44;5071116;28;20044;-69
2023/02/16 10:27:15;;;;;;;52.55;22.55;;;;;;;5.99;100.00;94218.88;5070879;28;20089;-68
2023/02/16 10:29:42;;;;;;;44.85;23.27;;;;;;;5.98;94.68;94229.25;5071432;28;20083;-68
2023/02/16 10:32:19;;;;;;;49.67;23.20;;;;;;;6.17;98.24;94227.38;5070683;28;20060;-68
2023/02/16 10:34:49;;;;;;;54.13;22.90;;;;;;;6.42;100.00;94220.56;5071026;28;20044;-68
2023/02/16 10:37:29;;;;;;;41.30;20.65;;;;;;;6.52;96.12;94218.66;5070796;28;20497;-70
2023/02/16 10:40:14;;;;;;;36.63;18.65;;;;;;;6.65;88.58;94223.28;5070805;28;20053;-69
2023/02/16 10:42:46;;;;;;;38.47;18.38;;;;;;;6.53;87.83;94215.13;5070837;28;20398;-69
2023/02/16 10:45:22;;;;;;;43.90;15.85;;;;;;;6.63;82.92;94207.31;5070828;28;20442;-69
2023/02/16 10:47:51;;;;;;;35.22;15.32;;;;;;;6.78;89.59;94204.94;5070613;28;20105;-69
2023/02/16 10:50:24;;;;;;;33.22;16.02;;;;;;;6.85;86.17;94199.19;5059254;28;20055;-70
2023/02/16 10:52:54;;;;;;;78.25;25.73;;;;;;;7.04;87.98;94198.03;5061607;28;20041;-70
2023/02/16 10:55:22;;;;;;;30.90;12.55;;;;;;;7.21;82.98;94188.56;5056925;28;20037;-70
2023/02/16 10:57:55;;;;;;;24.95;9.75;;;;;;;7.24;82.80;94151.66;5066615;28;20504;-71
2023/02/16 11:00:45;;;;;;;22.38;10.20;;;;;;;7.49;71.56;94168.50;5067658;28;20048;-71
2023/02/16 11:03:14;;;;;;;22.60;10.57;;;;;;;7.65;70.85;94164.28;5064251;28;20040;-71
2023/02/16 11:05:42;;;;;;;24.95;11.25;;;;;;;7.80;68.24;94164.34;5071847;28;20055;-70
2023/02/16 11:08:11;;;;;;;25.30;10.15;;;;;;;7.74;68.45;94165.81;5070475;28;20048;-70
2023/02/16 11:10:44;;;;;;;24.25;11.23;;;;;;;7.92;69.66;94162.19;5070418;28;20518;-70
2023/02/16 11:13:24;;;;;;;27.10;11.65;;;;;;;8.02;74.86;94146.63;5070167;28;20040;-70
2023/02/16 11:15:53;;;;;;;22.67;10.10;;;;;;;8.23;75.34;94156.25;5070233;28;20500;-70
2023/02/16 11:18:35;;;;;;;28.50;10.27;;;;;;;8.42;74.68;94143.94;5070121;28;20493;-70
2023/02/16 11:21:02;;;;;;;25.00;8.40;;;;;;;8.48;69.16;94152.69;5070068;28;20048;-70
2023/02/16 11:23:31;;;;;;;18.45;8.48;;;;;;;8.60;73.25;94138.53;5070500;28;20048;-70
2023/02/16 11:26:01;;;;;;;43.38;15.18;;;;;;;8.75;71.73;94140.34;5070229;28;20041;-70
2023/02/16 11:28:32;;;;;;;17.02;8.15;;;;;;;8.66;63.47;94131.94;5069948;28;20656;-69
2023/02/16 11:31:13;;;;;;;23.83;10.98;;;;;;;8.71;67.38;94129.66;5070285;28;20040;-69
2023/02/16 11:33:43;;;;;;;18.52;8.43;;;;;;;8.77;72.25;94128.94;5070178;28;20109;-69
2023/02/16 11:36:20;;;;;;;14.23;8.23;;;;;;;8.90;73.14;94125.78;5069923;28;20114;-69
2023/02/16 11:38:57;;;;;;;36.03;12.48;;;;;;;9.04;71.15;94126.75;5069768;28;20060;-69
2023/02/16 11:41:25;;;;;;;44.83;14.23;;;;;;;9.16;66.91;94124.53;5057467;28;20420;-70
2023/02/16 11:43:52;;;;;;;360.75;110.47;;;;;;;9.33;69.95;94117.44;5064278;28;20052;-70
2023/02/16 11:46:20;;;;;;;54.92;20.20;;;;;;;9.49;67.92;94116.44;5063241;28;20051;-70
2023/02/16 11:48:50;;;;;;;34.03;13.70;;;;;;;9.60;67.72;94117.75;5069404;28;20090;-70
2023/02/16 11:51:30;;;;;;;91.95;26.42;;;;;;;9.75;67.03;94120.28;5069792;28;20060;-69
2023/02/16 11:54:01;;;;;;;22.33;9.68;;;;;;;9.79;55.96;94113.00;5069532;28;20052;-69
2023/02/16 11:56:31;;;;;;;21.95;10.10;;;;;;;9.83;57.08;94116.81;5069413;28;20041;-69
2023/02/16 11:59:07;;;;;;;25.55;10.82;;;;;;;9.78;59.82;94108.84;5057860;28;20091;-69
2023/02/16 12:02:03;;;;;;;28.23;10.60;;;;;;;9.78;62.23;94103.72;5069379;28;20052;-69
2023/02/16 12:04:50;;;;;;;14.63;7.47;;;;;;;9.80;57.75;94095.81;5069779;28;20146;-69
2023/02/16 12:07:26;;;;;;;14.02;6.97;;;;;;;9.78;52.53;94105.47;5069578;28;20041;-69
2023/02/16 12:10:02;;;;;;;13.57;6.78;;;;;;;9.73;51.30;94100.91;5069494;28;20569;-69